Impacts TAF Board
For situational awareness. Not to be used for flight planning purposes.
IDs:

KLAS - Las Vegas/McCarran I, NV, US

Issued at 0539 UTC 14 Dec 2018
Updated at 0613 UTC 14 Dec 2018
Potential Impact None Slight Moderate High
Time<<14/19Z 14/20Z 14/21Z 14/22Z 14/23Z 15/00Z 15/01Z 15/02Z 15/03Z 15/04Z 15/05Z 15/06Z 15/07Z>>
Type PRVL PRVL PRVL PRVL PRVL PRVL PRVL PRVL PRVL PRVL PRVL PRVL PRVL
VIS >6 >6 >6 >6 >6 >6 >6 >6 >6 >6 >6 >6 >6
CIG 200 150 150 150 150 150 150 150 150 -- -- -- --
Cover BKN BKN BKN BKN BKN BKN BKN BKN BKN SCT SCT SCT SCT
FltCat VFR VFR VFR VFR VFR VFR VFR VFR VFR VFR VFR VFR VFR
WX -- -- -- -- -- -- -- -- -- -- -- -- --
WDir VRB 80 80 80 80 80 80 80 80 VRB VRB VRB VRB
WSpd 4 5 5 5 5 5 5 5 5 5 5 5 5
WGst -- -- -- -- -- -- -- -- -- -- -- -- --
Raw TAF
KLAS 140539Z 1406/1512 20006KT P6SM SCT250
  FM140700 VRB04KT P6SM BKN200
  FM142000 08005KT P6SM SCT100 BKN150
  FM150400 VRB05KT P6SM SCT100 SCT120
  FM151000 32005KT P6SM SCT100 SCT120


METAR Board
Radar Display
Forecast Discussion
For situational awareness. Not to be used for flight planning purposes.